createdAt,value
2022-08-07T00:00:21.295Z,102172.47
2022-08-07T00:03:08.709Z,102174.25
2022-08-07T00:05:40.167Z,102170.66
2022-08-07T00:08:12.887Z,102169.78
2022-08-07T00:10:48.096Z,102170.63
2022-08-07T00:13:28.125Z,102175.06
2022-08-07T00:15:59.187Z,102172.41
2022-08-07T00:18:31.646Z,102168.88
2022-08-07T00:21:07.982Z,102167.97
2022-08-07T00:23:54.557Z,102174.16
2022-08-07T00:26:49.574Z,102175.88
2022-08-07T00:29:18.938Z,102176.78
2022-08-07T00:31:54.115Z,102178.56
2022-08-07T00:34:24.955Z,102175.03
2022-08-07T00:36:57.204Z,102181.22
2022-08-07T00:39:27.865Z,102185.66
2022-08-07T00:42:01.781Z,102175.94
2022-08-07T00:44:33.640Z,102171.50
2022-08-07T00:47:06.520Z,102167.94
2022-08-07T00:50:19.216Z,102170.59
2022-08-07T00:52:47.702Z,102166.16
2022-08-07T00:55:25.567Z,102163.50
2022-08-07T00:58:09.075Z,102167.03
2022-08-07T01:00:39.996Z,102163.47
2022-08-07T01:03:54.743Z,102169.72
2022-08-07T01:06:15.756Z,102169.72
2022-08-07T01:08:53.293Z,102169.69
2022-08-07T01:12:10.078Z,102166.16
2022-08-07T01:14:16.671Z,102159.06
2022-08-07T01:16:48.306Z,102163.53
2022-08-07T01:19:22.076Z,102165.31
2022-08-07T01:21:58.793Z,102166.19
2022-08-07T01:24:34.127Z,102173.34
2022-08-07T01:27:19.247Z,102172.41
2022-08-07T01:29:50.857Z,102165.34
2022-08-07T01:32:23.335Z,102167.09
2022-08-07T01:34:57.285Z,102172.41
2022-08-07T01:37:30.738Z,102163.53
2022-08-07T01:40:07.769Z,102163.53
2022-08-07T01:42:58.631Z,102165.34
2022-08-07T01:45:37.086Z,102168.91
2022-08-07T01:48:29.783Z,102166.22
2022-08-07T01:51:24.566Z,102166.22
2022-08-07T01:54:11.854Z,102176.84
2022-08-07T01:56:53.878Z,102172.41
2022-08-07T01:59:31.689Z,102171.53
2022-08-07T02:02:10.588Z,102183.06
2022-08-07T02:04:52.507Z,102181.31
2022-08-07T02:07:36.207Z,102176.88
2022-08-07T02:10:28.037Z,102180.44
2022-08-07T02:13:01.645Z,102180.44
2022-08-07T02:15:43.468Z,102179.53
2022-08-07T02:18:15.685Z,102182.19
2022-08-07T02:20:55.953Z,102180.44
2022-08-07T02:23:29.652Z,102173.34
2022-08-07T02:26:31.341Z,102176.88
2022-08-07T02:29:00.652Z,102176.91
2022-08-07T02:31:33.185Z,102176.03
2022-08-07T02:34:11.516Z,102177.78
2022-08-07T02:36:54.867Z,102185.78
2022-08-07T02:39:43.999Z,102179.59
2022-08-07T02:42:23.588Z,102178.69
2022-08-07T02:44:55.786Z,102182.25
2022-08-07T02:47:44.849Z,102183.13
2022-08-07T02:50:18.657Z,102183.13
2022-08-07T02:53:03.471Z,102183.13
2022-08-07T02:56:03.997Z,102182.22
2022-08-07T02:58:36.005Z,102178.69
2022-08-07T03:01:15.935Z,102178.69
2022-08-07T03:03:51.686Z,102170.69
2022-08-07T03:06:33.197Z,102173.34
2022-08-07T03:09:11.302Z,102177.78
2022-08-07T03:11:52.589Z,102175.13
2022-08-07T03:14:32.879Z,102171.59
2022-08-07T03:17:04.658Z,102182.25
2022-08-07T03:19:37.485Z,102168.03
2022-08-07T03:22:18.990Z,102167.19
2022-08-07T03:24:53.368Z,102169.84
2022-08-07T03:27:30.890Z,102174.31
2022-08-07T03:30:19.947Z,102175.22
2022-08-07T03:32:58.771Z,102175.25
2022-08-07T03:35:43.979Z,102173.47
2022-08-07T03:38:29.597Z,102171.72
2022-08-07T03:41:06.373Z,102172.56
2022-08-07T03:43:52.197Z,102172.59
2022-08-07T03:46:34.309Z,102178.81
2022-08-07T03:49:04.968Z,102169.94
2022-08-07T03:51:47.244Z,102175.25
2022-08-07T03:54:35.473Z,102173.50
2022-08-07T03:57:10.918Z,102179.72
2022-08-07T04:00:04.104Z,102183.28
2022-08-07T04:02:49.496Z,102179.75
2022-08-07T04:05:40.635Z,102190.41
2022-08-07T04:08:23.666Z,102186.00
2022-08-07T04:12:25.548Z,102179.81
2022-08-07T04:14:32.987Z,102185.19
2022-08-07T04:16:40.449Z,102184.31
2022-08-07T04:19:51.125Z,102192.31
2022-08-07T04:22:23.141Z,102199.41
2022-08-07T04:24:55.078Z,102192.28
2022-08-07T04:27:28.818Z,102196.72
2022-08-07T04:30:36.045Z,102194.06
2022-08-07T04:33:09.799Z,102195.81
2022-08-07T04:35:51.339Z,102191.25
2022-08-07T04:38:28.677Z,102193.81
2022-08-07T04:41:01.088Z,102192.00
2022-08-07T04:44:12.820Z,102190.06
2022-08-07T04:46:59.481Z,102194.47
2022-08-07T04:49:57.778Z,102191.59
2022-08-07T04:52:51.979Z,102189.75
2022-08-07T04:58:23.951Z,102191.47
2022-08-07T04:59:09.077Z,102195.53
2022-08-07T05:01:38.780Z,102196.28
2022-08-07T05:04:17.954Z,102195.22
2022-08-07T05:07:00.387Z,102195.81
2022-08-07T05:09:57.977Z,102191.34
2022-08-07T05:12:37.218Z,102199.47
2022-08-07T05:15:25.808Z,102208.63
2022-08-07T05:18:08.528Z,102211.13
2022-08-07T05:20:48.441Z,102213.75
2022-08-07T05:23:30.086Z,102217.56
2022-08-07T05:26:18.895Z,102214.16
2022-08-07T05:29:04.310Z,102213.38
2022-08-07T05:31:40.088Z,102223.09
2022-08-07T05:34:26.170Z,102223.53
2022-08-07T05:36:58.478Z,102221.34
2022-08-07T05:40:14.105Z,102223.72
2022-08-07T05:42:39.696Z,102222.81
2022-08-07T05:45:46.441Z,102217.94
2022-08-07T05:48:09.159Z,102219.03
2022-08-07T05:50:45.967Z,102221.31
2022-08-07T05:54:12.470Z,102219.75
2022-08-07T05:56:13.769Z,102222.81
2022-08-07T05:58:53.198Z,102228.63
2022-08-07T06:01:35.635Z,102225.72
2022-08-07T06:04:10.796Z,102231.44
2022-08-07T06:06:46.416Z,102236.91
2022-08-07T06:09:20.556Z,102233.47
2022-08-07T06:12:12.393Z,102223.81
2022-08-07T06:14:49.515Z,102227.75
2022-08-07T06:17:22.519Z,102226.00
2022-08-07T06:20:04.828Z,102236.84
2022-08-07T06:22:40.261Z,102238.16
2022-08-07T06:25:34.891Z,102239.66
2022-08-07T06:28:09.196Z,102245.03
2022-08-07T06:30:52.987Z,102238.44
2022-08-07T06:33:26.056Z,102242.59
2022-08-07T06:36:13.381Z,102239.50
2022-08-07T06:40:13.019Z,102242.13
2022-08-07T06:42:01.923Z,102240.50
2022-08-07T06:45:12.379Z,102235.97
2022-08-07T06:47:57.054Z,102240.66
2022-08-07T06:50:30.725Z,102240.41
2022-08-07T06:53:04.957Z,102239.13
2022-08-07T06:56:01.374Z,102252.59
2022-08-07T06:58:38.818Z,102237.19
2022-08-07T07:01:16.953Z,102236.72
2022-08-07T07:03:57.116Z,102238.88
2022-08-07T07:07:00.779Z,102241.09
2022-08-07T07:09:32.923Z,102243.06
2022-08-07T07:12:31.139Z,102247.13
2022-08-07T07:15:23.842Z,102228.34
2022-08-07T07:18:05.629Z,102233.22
2022-08-07T07:20:41.608Z,102236.38
2022-08-07T07:24:08.317Z,102246.88
2022-08-07T07:26:32.957Z,102243.84
2022-08-07T07:29:39.867Z,102248.31
2022-08-07T07:31:53.489Z,102239.66
2022-08-07T07:34:31.908Z,102237.63
2022-08-07T07:37:21.522Z,102229.56
2022-08-07T07:40:02.407Z,102216.09
2022-08-07T07:42:35.149Z,102196.25
2022-08-07T07:45:08.827Z,102229.06
2022-08-07T07:47:52.758Z,102231.31
2022-08-07T07:50:33.642Z,102234.94
2022-08-07T07:53:23.254Z,102223.84
2022-08-07T07:56:00.909Z,102222.97
2022-08-07T07:58:37.043Z,102220.19
2022-08-07T08:02:02.086Z,102226.47
2022-08-07T08:04:11.529Z,102227.16
2022-08-07T08:06:52.252Z,102222.63
2022-08-07T08:09:29.861Z,102229.22
2022-08-07T08:12:05.014Z,102227.19
2022-08-07T08:14:37.337Z,102221.28
2022-08-07T08:17:55.576Z,102222.53
2022-08-07T08:20:18.780Z,102219.91
2022-08-07T08:23:14.356Z,102220.94
2022-08-07T08:26:07.211Z,102213.34
2022-08-07T08:28:43.299Z,102218.41
2022-08-07T08:31:30.036Z,102223.16
2022-08-07T08:34:26.666Z,102218.91
2022-08-07T08:36:59.170Z,102235.44
2022-08-07T08:39:39.587Z,102230.31
2022-08-07T08:42:29.275Z,102219.78
2022-08-07T08:45:15.355Z,102223.84
2022-08-07T08:48:00.895Z,102224.22
2022-08-07T08:50:38.838Z,102225.84
2022-08-07T08:53:20.923Z,102230.63
2022-08-07T08:55:58.854Z,102216.84
2022-08-07T08:58:41.498Z,102217.31
2022-08-07T09:01:19.210Z,102221.44
2022-08-07T09:04:01.058Z,102221.09
2022-08-07T09:06:47.965Z,102220.75
2022-08-07T09:09:47.570Z,102221.19
2022-08-07T09:12:32.249Z,102228.56
2022-08-07T09:16:25.379Z,102222.16
2022-08-07T09:18:34.973Z,102231.47
2022-08-07T09:21:34.417Z,102225.94
2022-08-07T09:24:30.924Z,102222.50
2022-08-07T09:27:30.619Z,102217.13
2022-08-07T09:30:09.745Z,102226.81
2022-08-07T09:33:16.678Z,102227.09
2022-08-07T09:36:06.335Z,102226.34
2022-08-07T09:38:53.463Z,102218.13
2022-08-07T09:41:43.310Z,102220.94
2022-08-07T09:47:59.088Z,102206.53
2022-08-07T09:50:41.498Z,102200.34
2022-08-07T09:53:17.757Z,102203.63
2022-08-07T09:56:05.712Z,102199.03
2022-08-07T09:59:21.974Z,102209.84
2022-08-07T10:02:09.018Z,102196.41
2022-08-07T10:05:12.380Z,102205.03
2022-08-07T10:08:01.075Z,102205.75
2022-08-07T10:11:16.710Z,102192.59
2022-08-07T10:14:01.428Z,102190.97
2022-08-07T10:16:48.368Z,102184.47
2022-08-07T10:19:31.768Z,102177.41
2022-08-07T10:22:43.117Z,102175.78
2022-08-07T10:25:33.053Z,102187.97
2022-08-07T10:28:29.676Z,102186.50
2022-08-07T10:31:16.098Z,102178.50
2022-08-07T10:34:06.603Z,102183.56
2022-08-07T10:37:03.949Z,102178.13
2022-08-07T10:40:03.452Z,102179.00
2022-08-07T10:42:47.667Z,102180.34
2022-08-07T10:45:44.501Z,102175.44
2022-08-07T10:48:36.836Z,102168.25
2022-08-07T10:51:57.751Z,102174.94
2022-08-07T10:54:15.019Z,102164.44
2022-08-07T10:57:05.426Z,102171.88
2022-08-07T10:59:47.756Z,102173.84
2022-08-07T11:02:33.270Z,102174.34
2022-08-07T11:05:35.826Z,102173.28
2022-08-07T11:08:30.218Z,102165.06
2022-08-07T11:11:08.028Z,102167.47
2022-08-07T11:14:44.973Z,102175.59
2022-08-07T11:16:44.272Z,102172.44
2022-08-07T11:19:27.293Z,102167.75
2022-08-07T11:22:04.567Z,102172.78
2022-08-07T11:24:48.771Z,102177.56
2022-08-07T11:27:33.504Z,102179.56
2022-08-07T11:30:29.078Z,102178.06
2022-08-07T11:33:59.082Z,102182.22
2022-08-07T11:36:36.266Z,102169.56
2022-08-07T11:39:39.691Z,102173.22
2022-08-07T11:42:29.676Z,102179.00
2022-08-07T11:45:12.531Z,102183.28
2022-08-07T11:48:18.251Z,102180.25
2022-08-07T11:51:40.806Z,102175.66
2022-08-07T11:54:33.237Z,102168.72
2022-08-07T11:57:15.980Z,102176.69
2022-08-07T12:00:19.181Z,102161.69
2022-08-07T12:03:44.406Z,102161.09
2022-08-07T12:06:40.212Z,102161.44
2022-08-07T12:09:27.328Z,102157.47
2022-08-07T12:12:11.647Z,102162.63
2022-08-07T12:14:55.620Z,102150.13
2022-08-07T12:17:35.458Z,102155.88
2022-08-07T12:20:29.640Z,102156.34
2022-08-07T12:24:06.129Z,102139.22
2022-08-07T12:26:46.808Z,102139.63
2022-08-07T12:29:38.909Z,102135.13
2022-08-07T12:32:30.425Z,102131.09
2022-08-07T12:35:10.285Z,102140.53
2022-08-07T12:38:10.692Z,102137.22
2022-08-07T12:40:46.918Z,102134.97
2022-08-07T12:44:03.950Z,102135.22
2022-08-07T12:46:32.290Z,102149.13
2022-08-07T12:49:39.404Z,102139.28
2022-08-07T12:52:18.226Z,102134.16
2022-08-07T12:55:03.965Z,102143.38
2022-08-07T12:58:01.264Z,102139.63
2022-08-07T13:00:49.957Z,102148.03
2022-08-07T13:03:54.867Z,102143.38
2022-08-07T13:07:00.127Z,102137.34
2022-08-07T13:10:37.055Z,102145.41
2022-08-07T13:12:56.127Z,102136.47
2022-08-07T13:15:37.992Z,102138.78
2022-08-07T13:18:29.051Z,102135.88
2022-08-07T13:21:12.027Z,102142.81
2022-08-07T13:24:04.144Z,102137.53
2022-08-07T13:26:46.116Z,102138.06
2022-08-07T13:29:23.139Z,102134.03
2022-08-07T13:32:00.286Z,102136.66
2022-08-07T13:34:56.380Z,102137.03
2022-08-07T13:37:33.796Z,102128.28
2022-08-07T13:40:36.128Z,102125.44
2022-08-07T13:43:17.037Z,102132.78
2022-08-07T13:46:10.949Z,102128.84
2022-08-07T13:49:19.724Z,102126.38
2022-08-07T13:52:30.486Z,102133.56
2022-08-07T13:54:59.711Z,102134.38
2022-08-07T13:57:37.788Z,102132.03
2022-08-07T14:00:25.980Z,102133.72
2022-08-07T14:03:01.190Z,102129.91
2022-08-07T14:05:37.270Z,102131.19
2022-08-07T14:08:13.549Z,102136.06
2022-08-07T14:11:01.929Z,102130.44
2022-08-07T14:13:45.254Z,102131.53
2022-08-07T14:16:26.921Z,102140.75
2022-08-07T14:19:07.037Z,102135.09
2022-08-07T14:22:01.021Z,102127.69
2022-08-07T14:24:41.442Z,102131.06
2022-08-07T14:27:16.087Z,102127.22
2022-08-07T14:30:14.034Z,102126.97
2022-08-07T14:32:48.342Z,102131.44
2022-08-07T14:35:44.760Z,102126.78
2022-08-07T14:38:31.192Z,102122.16
2022-08-07T14:41:14.719Z,102121.22
2022-08-07T14:46:56.503Z,102127.56
2022-08-07T14:49:57.056Z,102127.09
2022-08-07T14:52:35.973Z,102115.69
2022-08-07T14:55:17.438Z,102128.19
2022-08-07T14:57:57.838Z,102123.03
2022-08-07T15:00:33.262Z,102127.94
2022-08-07T15:03:16.516Z,102126.13
2022-08-07T15:06:04.340Z,102118.16
2022-08-07T15:08:50.337Z,102128.09
2022-08-07T15:11:50.894Z,102120.19
2022-08-07T15:14:30.583Z,102119.38
2022-08-07T15:17:04.557Z,102129.09
2022-08-07T15:19:44.137Z,102120.78
2022-08-07T15:22:38.563Z,102112.44
2022-08-07T15:25:19.521Z,102116.84
2022-08-07T15:30:59.418Z,102113.53
2022-08-07T15:33:42.833Z,102112.94
2022-08-07T15:39:12.726Z,102116.03
2022-08-07T15:42:46.508Z,102108.34
2022-08-07T15:44:53.994Z,102107.66
2022-08-07T15:48:00.773Z,102105.41
2022-08-07T15:51:01.425Z,102114.06
2022-08-07T15:53:16.146Z,102099.47
2022-08-07T15:56:02.740Z,102113.78
2022-08-07T15:58:42.183Z,102112.50
2022-08-07T16:01:39.018Z,102114.59
2022-08-07T16:04:15.300Z,102104.81
2022-08-07T16:06:52.776Z,102111.34
2022-08-07T16:09:40.953Z,102120.25
2022-08-07T16:12:29.775Z,102114.41
2022-08-07T16:15:57.996Z,102114.34
2022-08-07T16:18:14.418Z,102111.72
2022-08-07T16:22:04.290Z,102120.88
2022-08-07T16:24:09.258Z,102116.69
2022-08-07T16:27:18.427Z,102121.91
2022-08-07T16:30:30.131Z,102127.44
2022-08-07T16:34:02.601Z,102121.59
2022-08-07T16:36:22.615Z,102121.81
2022-08-07T16:39:49.244Z,102114.78
2022-08-07T16:42:43.885Z,102113.78
2022-08-07T16:46:34.669Z,102116.59
2022-08-07T16:50:28.931Z,102105.59
2022-08-07T16:52:50.849Z,102108.50
2022-08-07T16:55:24.817Z,102115.97
2022-08-07T16:58:04.207Z,102115.03
2022-08-07T17:00:43.386Z,102109.56
2022-08-07T17:04:00.082Z,102110.97
2022-08-07T17:06:45.859Z,102104.50
2022-08-07T17:10:05.090Z,102110.69
2022-08-07T17:12:33.928Z,102106.56
2022-08-07T17:15:18.179Z,102108.56
2022-08-07T17:18:04.595Z,102112.28
2022-08-07T17:20:38.357Z,102101.44
2022-08-07T17:23:34.938Z,102106.13
2022-08-07T17:26:23.700Z,102118.00
2022-08-07T17:29:18.358Z,102113.16
2022-08-07T17:32:14.088Z,102115.03
2022-08-07T17:35:50.088Z,102112.38
2022-08-07T17:38:33.138Z,102124.28
2022-08-07T17:41:12.431Z,102121.56
2022-08-07T17:44:13.375Z,102113.72
2022-08-07T17:46:58.613Z,102120.09
2022-08-07T17:49:45.115Z,102119.22
2022-08-07T17:52:30.337Z,102118.34
2022-08-07T17:55:14.430Z,102120.44
2022-08-07T17:58:29.879Z,102119.59
2022-08-07T18:01:20.606Z,102116.34
2022-08-07T18:04:16.105Z,102124.34
2022-08-07T18:07:19.278Z,102123.34
2022-08-07T18:10:06.596Z,102122.44
2022-08-07T18:13:09.907Z,102132.47
2022-08-07T18:15:53.839Z,102128.03
2022-08-07T18:18:46.176Z,102129.13
2022-08-07T18:21:53.592Z,102131.75
2022-08-07T18:24:33.655Z,102124.63
2022-08-07T18:27:39.056Z,102131.03
2022-08-07T18:30:32.884Z,102139.22
2022-08-07T18:33:54.800Z,102138.50
2022-08-07T18:36:41.824Z,102138.53
2022-08-07T18:40:05.499Z,102140.53
2022-08-07T18:42:27.882Z,102141.59
2022-08-07T18:45:44.507Z,102148.00
2022-08-07T18:50:04.598Z,102154.47
2022-08-07T18:52:35.544Z,102163.53
2022-08-07T18:54:32.398Z,102159.19
2022-08-07T18:57:40.069Z,102161.97
2022-08-07T19:00:32.425Z,102163.78
2022-08-07T19:03:12.459Z,102162.09
2022-08-07T19:06:03.426Z,102161.22
2022-08-07T19:08:58.892Z,102169.25
2022-08-07T19:12:04.890Z,102166.63
2022-08-07T19:16:02.859Z,102165.97
2022-08-07T19:18:34.030Z,102165.31
2022-08-07T19:21:44.123Z,102171.91
2022-08-07T19:24:13.045Z,102166.84
2022-08-07T19:28:57.947Z,102169.72
2022-08-07T19:30:58.781Z,102169.84
2022-08-07T19:33:10.263Z,102166.66
2022-08-07T19:36:01.707Z,102169.56
2022-08-07T19:38:52.984Z,102174.19
2022-08-07T19:41:44.749Z,102184.97
2022-08-07T19:44:32.990Z,102174.31
2022-08-07T19:47:17.811Z,102183.25
2022-08-07T19:50:44.326Z,102179.88
2022-08-07T19:54:31.147Z,102184.47
2022-08-07T19:57:51.277Z,102188.00
2022-08-07T19:59:21.498Z,102190.72
2022-08-07T20:02:05.600Z,102197.91
2022-08-07T20:04:49.246Z,102197.13
2022-08-07T20:07:46.638Z,102204.31
2022-08-07T20:10:54.621Z,102201.69
2022-08-07T20:13:44.580Z,102197.25
2022-08-07T20:16:34.859Z,102202.63
2022-08-07T20:19:12.796Z,102208.06
2022-08-07T20:21:47.517Z,102204.56
2022-08-07T20:24:23.716Z,102201.88
2022-08-07T20:27:03.507Z,102209.91
2022-08-07T20:29:49.464Z,102200.09
2022-08-07T20:32:36.207Z,102194.75
2022-08-07T20:35:26.193Z,102202.81
2022-08-07T20:38:00.853Z,102192.13
2022-08-07T20:40:45.823Z,102191.25
2022-08-07T20:43:29.635Z,102209.09
2022-08-07T20:46:26.563Z,102189.56
2022-08-07T20:49:02.449Z,102205.59
2022-08-07T20:51:48.954Z,102198.47
2022-08-07T20:54:29.717Z,102200.25
2022-08-07T20:57:08.175Z,102202.94
2022-08-07T21:00:07.010Z,102204.69
2022-08-07T21:02:55.526Z,102202.91
2022-08-07T21:05:52.723Z,102212.72
2022-08-07T21:08:38.122Z,102208.25
2022-08-07T21:11:14.390Z,102208.25
2022-08-07T21:14:16.057Z,102202.91
2022-08-07T21:16:56.032Z,102205.59
2022-08-07T21:20:00.987Z,102208.25
2022-08-07T21:22:30.906Z,102207.34
2022-08-07T21:25:13.517Z,102206.44
2022-08-07T21:28:02.110Z,102210.88
2022-08-07T21:30:45.599Z,102199.34
2022-08-07T21:33:23.598Z,102206.44
2022-08-07T21:36:11.834Z,102207.31
2022-08-07T21:38:55.507Z,102210.00
2022-08-07T21:41:38.006Z,102205.53
2022-08-07T21:44:30.020Z,102200.19
2022-08-07T21:47:07.493Z,102201.09
2022-08-07T21:50:02.646Z,102207.34
2022-08-07T21:52:49.005Z,102203.81
2022-08-07T21:55:27.975Z,102212.72
2022-08-07T21:58:08.273Z,102208.28
2022-08-07T22:00:50.099Z,102207.38
2022-08-07T22:03:30.963Z,102202.94
2022-08-07T22:06:30.245Z,102205.63
2022-08-07T22:09:06.932Z,102206.50
2022-08-07T22:12:05.464Z,102208.28
2022-08-07T22:14:44.083Z,102207.38
2022-08-07T22:17:37.643Z,102206.50
2022-08-07T22:20:23.550Z,102205.63
2022-08-07T22:23:03.387Z,102210.09
2022-08-07T22:25:42.198Z,102215.41
2022-08-07T22:28:32.468Z,102210.06
2022-08-07T22:31:12.876Z,102214.53
2022-08-07T22:34:12.882Z,102218.97
2022-08-07T22:36:52.558Z,102225.19
2022-08-07T22:39:52.714Z,102217.19
2022-08-07T22:42:30.406Z,102213.63
2022-08-07T22:46:21.847Z,102212.75
2022-08-07T22:48:54.683Z,102209.19
2022-08-07T22:51:42.348Z,102197.63
2022-08-07T22:54:48.775Z,102204.75
2022-08-07T22:57:51.346Z,102194.97
2022-08-07T23:00:28.553Z,102203.84
2022-08-07T23:03:14.614Z,102199.41
2022-08-07T23:06:08.794Z,102199.41
2022-08-07T23:10:00.785Z,102202.97
2022-08-07T23:12:07.669Z,102187.84
2022-08-07T23:15:04.611Z,102195.84
2022-08-07T23:17:58.031Z,102196.75
2022-08-07T23:20:53.275Z,102194.97
2022-08-07T23:24:07.099Z,102188.75
2022-08-07T23:26:41.470Z,102188.72
2022-08-07T23:30:38.975Z,102188.75
2022-08-07T23:34:24.005Z,102190.53
2022-08-07T23:36:10.708Z,102192.28
2022-08-07T23:39:00.668Z,102189.59
2022-08-07T23:42:01.750Z,102187.81
2022-08-07T23:44:59.470Z,102186.03
2022-08-07T23:47:42.432Z,102185.16
2022-08-07T23:50:37.510Z,102192.25
2022-08-07T23:53:51.041Z,102184.25
2022-08-07T23:56:31.258Z,102190.47
